Time;durP1;ratioP1;P1;durP2;ratioP2;P2;SDS_P1;SDS_P2;PMS_P1;PMS_P2;Temp;Humidity;BMP_temperature;BMP_pressure;BME280_temperature;BME280_humidity;BME280_pressure;Samples;Min_cycle;Max_cycle;Signal;HPM_P1;HPM_P2
2022/12/10 00:02:25;;;;;;;;;32.25;26.75;;;;;;;;5057275;28;45437;-80
2022/12/10 00:04:50;;;;;;;;;32.25;28.50;;;;;;;;5060253;28;48137;-80
2022/12/10 00:07:15;;;;;;;;;33.00;30.50;;;;;;;;5060285;28;46259;-80
2022/12/10 00:09:40;;;;;;;;;35.25;29.50;;;;;;;;5060805;28;45411;-80
2022/12/10 00:12:06;;;;;;;;;22.75;22.50;;;;;;;;5060270;28;46093;-80
2022/12/10 00:14:31;;;;;;;;;29.75;25.75;;;;;;;;5060499;28;47469;-80
2022/12/10 00:16:56;;;;;;;;;26.25;24.25;;;;;;;;5059989;28;45412;-80
2022/12/10 00:19:21;;;;;;;;;29.75;26.25;;;;;;;;5060283;28;45748;-80
2022/12/10 00:21:47;;;;;;;;;32.50;28.00;;;;;;;;5060426;28;45401;-80
2022/12/10 00:24:12;;;;;;;;;35.75;32.50;;;;;;;;5061278;28;45389;-79
2022/12/10 00:26:41;;;;;;;;;25.50;22.50;;;;;;;;5061481;28;45479;-79
2022/12/10 00:29:07;;;;;;;;;28.50;26.50;;;;;;;;5060344;28;45338;-80
2022/12/10 00:31:34;;;;;;;;;32.75;29.25;;;;;;;;5059896;28;45357;-79
2022/12/10 00:34:00;;;;;;;;;32.75;31.75;;;;;;;;5061121;28;46483;-79
2022/12/10 00:36:27;;;;;;;;;34.75;31.25;;;;;;;;5061204;28;45376;-80
2022/12/10 00:38:53;;;;;;;;;40.25;37.00;;;;;;;;5061387;28;45409;-79
2022/12/10 00:41:18;;;;;;;;;33.75;31.75;;;;;;;;5061065;28;45366;-80
2022/12/10 00:43:44;;;;;;;;;39.50;35.25;;;;;;;;5059892;28;47368;-80
2022/12/10 00:46:09;;;;;;;;;40.75;35.50;;;;;;;;5061018;28;45425;-80
2022/12/10 00:48:35;;;;;;;;;34.00;31.75;;;;;;;;5059734;28;45538;-80
2022/12/10 00:51:02;;;;;;;;;45.50;39.50;;;;;;;;5059779;28;46889;-80
2022/12/10 00:53:28;;;;;;;;;36.25;34.50;;;;;;;;5059437;28;45538;-80
2022/12/10 00:55:53;;;;;;;;;37.75;36.25;;;;;;;;5060872;28;45397;-80
2022/12/10 00:58:19;;;;;;;;;44.50;36.00;;;;;;;;5060942;28;45545;-80
2022/12/10 01:00:44;;;;;;;;;44.50;39.50;;;;;;;;5061027;28;45500;-80
2022/12/10 01:03:12;;;;;;;;;41.75;33.00;;;;;;;;5059568;28;47835;-80
2022/12/10 01:05:37;;;;;;;;;43.75;38.00;;;;;;;;5059485;28;45386;-80
2022/12/10 01:08:02;;;;;;;;;45.25;37.50;;;;;;;;5060977;28;45341;-80
2022/12/10 01:10:28;;;;;;;;;40.00;37.00;;;;;;;;5060773;28;45410;-80
2022/12/10 01:12:53;;;;;;;;;45.25;39.75;;;;;;;;5059436;28;47077;-80
2022/12/10 01:15:18;;;;;;;;;42.50;38.00;;;;;;;;5059437;28;45303;-80
2022/12/10 01:17:43;;;;;;;;;40.50;37.50;;;;;;;;5060803;28;45408;-80
2022/12/10 01:20:09;;;;;;;;;36.75;35.75;;;;;;;;5060516;28;46012;-80
2022/12/10 01:22:34;;;;;;;;;35.25;30.00;;;;;;;;5060507;28;45278;-80
2022/12/10 01:24:59;;;;;;;;;39.25;36.25;;;;;;;;5059267;28;46165;-80
2022/12/10 01:27:25;;;;;;;;;36.00;34.25;;;;;;;;5060793;28;45290;-80
2022/12/10 01:29:50;;;;;;;;;45.50;39.50;;;;;;;;5060336;28;45418;-79
2022/12/10 01:32:15;;;;;;;;;43.00;38.75;;;;;;;;5060256;28;45413;-80
2022/12/10 01:34:40;;;;;;;;;42.50;37.00;;;;;;;;5060077;28;45298;-80
2022/12/10 01:37:05;;;;;;;;;47.00;36.75;;;;;;;;5059297;28;45396;-80
2022/12/10 01:39:31;;;;;;;;;35.75;31.50;;;;;;;;5060031;28;45461;-80
2022/12/10 01:41:57;;;;;;;;;37.25;32.00;;;;;;;;5060239;28;46087;-80
2022/12/10 01:44:22;;;;;;;;;37.50;33.00;;;;;;;;5059045;28;45417;-80
2022/12/10 01:46:49;;;;;;;;;42.75;33.00;;;;;;;;5060011;28;45286;-80
2022/12/10 01:49:19;;;;;;;;;51.25;39.00;;;;;;;;5058961;28;45536;-80
2022/12/10 01:51:45;;;;;;;;;42.25;37.75;;;;;;;;5059848;28;46131;-80
2022/12/10 01:54:12;;;;;;;;;54.75;42.75;;;;;;;;5059958;28;45195;-80
2022/12/10 01:56:40;;;;;;;;;55.00;45.50;;;;;;;;5060035;28;45337;-79
2022/12/10 01:59:05;;;;;;;;;55.25;44.75;;;;;;;;5059985;28;45295;-80
2022/12/10 02:01:37;;;;;;;;;46.75;42.00;;;;;;;;5059953;28;45401;-80
2022/12/10 02:04:17;;;;;;;;;46.25;39.25;;;;;;;;5060132;28;45299;-80
2022/12/10 02:06:55;;;;;;;;;43.75;39.00;;;;;;;;5058692;28;45425;-80
2022/12/10 02:09:27;;;;;;;;;40.75;37.00;;;;;;;;5059673;28;45219;-80
2022/12/10 02:12:01;;;;;;;;;44.00;37.50;;;;;;;;5059562;28;45494;-80
2022/12/10 02:14:36;;;;;;;;;40.50;33.25;;;;;;;;5058275;28;46166;-80
2022/12/10 02:17:04;;;;;;;;;36.25;29.00;;;;;;;;5059471;28;45287;-80
2022/12/10 02:19:48;;;;;;;;;49.25;40.00;;;;;;;;5059758;28;45696;-80
2022/12/10 02:22:15;;;;;;;;;45.25;39.50;;;;;;;;5058155;28;47264;-80
2022/12/10 02:24:41;;;;;;;;;37.25;36.00;;;;;;;;5058459;28;45497;-80
2022/12/10 02:27:11;;;;;;;;;39.75;37.00;;;;;;;;5059390;28;45405;-80
2022/12/10 02:29:38;;;;;;;;;42.75;38.50;;;;;;;;5059504;28;45277;-80
2022/12/10 02:32:14;;;;;;;;;45.25;36.75;;;;;;;;5059311;28;45405;-80
2022/12/10 02:34:46;;;;;;;;;43.25;35.75;;;;;;;;5057902;28;45342;-80
2022/12/10 02:37:17;;;;;;;;;39.00;32.50;;;;;;;;5059675;28;45392;-80
2022/12/10 02:39:45;;;;;;;;;49.75;40.00;;;;;;;;5059174;28;45416;-80
2022/12/10 02:42:12;;;;;;;;;39.50;35.25;;;;;;;;5059385;28;45359;-80
2022/12/10 02:44:40;;;;;;;;;48.75;40.75;;;;;;;;5059175;28;45409;-80
2022/12/10 02:47:05;;;;;;;;;48.25;42.00;;;;;;;;5059066;28;45448;-80
2022/12/10 02:49:31;;;;;;;;;46.50;40.50;;;;;;;;5059235;28;45534;-80
2022/12/10 02:51:56;;;;;;;;;45.75;40.25;;;;;;;;5059026;28;46205;-80
2022/12/10 02:54:37;;;;;;;;;49.75;43.00;;;;;;;;5059169;28;45295;-80
2022/12/10 02:57:05;;;;;;;;;47.50;39.75;;;;;;;;5059120;28;45409;-80
2022/12/10 02:59:34;;;;;;;;;56.25;44.75;;;;;;;;5059234;28;45377;-80
2022/12/10 03:02:15;;;;;;;;;56.00;46.00;;;;;;;;5058746;28;45435;-80
2022/12/10 03:04:52;;;;;;;;;58.75;45.50;;;;;;;;5059136;28;45314;-80
2022/12/10 03:07:22;;;;;;;;;54.25;42.00;;;;;;;;5059035;28;45220;-80
2022/12/10 03:09:53;;;;;;;;;63.25;49.25;;;;;;;;5058945;28;45662;-80
2022/12/10 03:12:25;;;;;;;;;61.00;49.00;;;;;;;;5058671;28;45277;-80
2022/12/10 03:14:50;;;;;;;;;61.00;46.75;;;;;;;;5058912;28;45335;-80
2022/12/10 03:17:16;;;;;;;;;59.00;47.00;;;;;;;;5058516;28;45198;-80
2022/12/10 03:19:47;;;;;;;;;60.00;47.25;;;;;;;;5058880;28;45173;-80
2022/12/10 03:22:14;;;;;;;;;52.25;42.25;;;;;;;;5058901;28;45380;-80
2022/12/10 03:24:41;;;;;;;;;59.75;47.00;;;;;;;;5058733;28;46419;-80
2022/12/10 03:27:07;;;;;;;;;57.25;47.25;;;;;;;;5059047;28;45315;-79
2022/12/10 03:29:38;;;;;;;;;63.75;49.75;;;;;;;;5058481;28;45467;-80
2022/12/10 03:32:04;;;;;;;;;60.25;47.25;;;;;;;;5049973;28;45474;-80
2022/12/10 03:34:29;;;;;;;;;63.50;51.75;;;;;;;;5058446;28;45338;-80
2022/12/10 03:36:55;;;;;;;;;56.50;46.00;;;;;;;;5059037;28;45354;-80
2022/12/10 03:39:20;;;;;;;;;64.25;49.00;;;;;;;;5061628;28;45289;-80
2022/12/10 03:41:45;;;;;;;;;62.75;49.25;;;;;;;;5062032;28;45350;-80
2022/12/10 03:44:11;;;;;;;;;57.50;48.75;;;;;;;;5062211;28;45466;-80
2022/12/10 03:46:36;;;;;;;;;61.25;47.25;;;;;;;;5062005;28;45242;-80
2022/12/10 03:49:02;;;;;;;;;57.00;48.25;;;;;;;;5062157;28;45548;-80
2022/12/10 03:51:27;;;;;;;;;57.25;42.25;;;;;;;;5062078;28;45448;-80
2022/12/10 03:53:53;;;;;;;;;59.25;47.00;;;;;;;;5061925;28;45240;-80
2022/12/10 03:56:19;;;;;;;;;65.25;52.00;;;;;;;;5062303;28;45362;-80
2022/12/10 03:58:44;;;;;;;;;55.00;44.50;;;;;;;;5061860;28;45615;-80
2022/12/10 04:01:09;;;;;;;;;64.75;50.50;;;;;;;;5061536;28;45997;-79
2022/12/10 04:03:36;;;;;;;;;54.75;45.75;;;;;;;;5061960;28;45254;-80
2022/12/10 04:06:05;;;;;;;;;68.25;54.50;;;;;;;;5062141;28;45378;-80
2022/12/10 04:08:30;;;;;;;;;58.75;49.50;;;;;;;;5061623;28;45319;-80
2022/12/10 04:11:00;;;;;;;;;65.50;53.25;;;;;;;;5061716;28;45294;-80
2022/12/10 04:16:28;;;;;;;;;65.00;51.50;;;;;;;;5061500;28;45452;-80
2022/12/10 04:18:54;;;;;;;;;64.25;50.50;;;;;;;;5061346;28;45346;-80
2022/12/10 04:26:54;;;;;;;;;65.25;51.25;;;;;;;;5061590;28;45438;-80
2022/12/10 04:29:20;;;;;;;;;60.75;49.50;;;;;;;;5061215;28;45383;-80
2022/12/10 04:31:46;;;;;;;;;67.50;55.50;;;;;;;;5061182;28;45397;-80
2022/12/10 04:34:11;;;;;;;;;62.75;50.25;;;;;;;;5061467;28;45408;-79
2022/12/10 04:36:36;;;;;;;;;65.25;53.50;;;;;;;;5061455;28;45524;-80
2022/12/10 04:39:01;;;;;;;;;64.75;48.00;;;;;;;;5061025;28;45145;-80
2022/12/10 04:41:27;;;;;;;;;64.00;49.75;;;;;;;;5059793;28;48131;-80
2022/12/10 04:43:52;;;;;;;;;67.25;51.25;;;;;;;;5060003;28;45378;-80
2022/12/10 04:46:17;;;;;;;;;62.00;49.50;;;;;;;;5060912;28;45284;-79
2022/12/10 04:48:42;;;;;;;;;61.75;51.25;;;;;;;;5061199;28;45377;-80
2022/12/10 04:51:08;;;;;;;;;60.75;48.50;;;;;;;;5061168;28;45478;-79
2022/12/10 04:53:33;;;;;;;;;61.00;48.75;;;;;;;;5060996;28;45336;-80
2022/12/10 04:55:58;;;;;;;;;62.25;51.00;;;;;;;;5061256;28;45239;-80
2022/12/10 04:58:23;;;;;;;;;57.25;44.25;;;;;;;;5060894;28;45375;-79
2022/12/10 05:00:48;;;;;;;;;53.75;42.75;;;;;;;;5060771;28;45362;-80
2022/12/10 05:03:14;;;;;;;;;62.25;50.50;;;;;;;;5059604;28;45340;-80
2022/12/10 05:05:39;;;;;;;;;59.75;48.75;;;;;;;;5061029;28;45331;-80
2022/12/10 05:08:04;;;;;;;;;57.75;47.50;;;;;;;;5060740;28;45302;-80
2022/12/10 05:10:29;;;;;;;;;62.00;49.25;;;;;;;;5060671;28;45393;-80
2022/12/10 05:12:55;;;;;;;;;60.75;48.00;;;;;;;;5060975;28;45197;-80
2022/12/10 05:15:20;;;;;;;;;57.00;48.75;;;;;;;;5059299;28;45272;-80
2022/12/10 05:17:45;;;;;;;;;61.50;47.75;;;;;;;;5060733;28;45524;-79
2022/12/10 05:20:10;;;;;;;;;60.50;48.75;;;;;;;;5060737;28;45405;-79
2022/12/10 05:25:19;;;;;;;;;63.00;50.00;;;;;;;;5060870;28;45316;-80
2022/12/10 05:27:44;;;;;;;;;61.75;50.75;;;;;;;;5060339;28;45324;-80
2022/12/10 05:30:10;;;;;;;;;60.75;48.25;;;;;;;;5060469;28;46257;-80
2022/12/10 05:32:36;;;;;;;;;64.00;52.25;;;;;;;;5060789;28;45612;-80
2022/12/10 05:35:01;;;;;;;;;57.00;47.25;;;;;;;;5059184;28;45430;-79
2022/12/10 05:37:27;;;;;;;;;65.50;50.25;;;;;;;;5058889;28;46170;-79
2022/12/10 05:39:52;;;;;;;;;59.25;47.75;;;;;;;;5060167;28;45410;-79
2022/12/10 05:42:17;;;;;;;;;64.00;49.50;;;;;;;;5060499;28;45420;-80
2022/12/10 05:44:42;;;;;;;;;59.75;50.00;;;;;;;;5059366;28;45331;-80
2022/12/10 05:47:08;;;;;;;;;59.25;48.50;;;;;;;;5059950;28;45346;-81
2022/12/10 05:49:33;;;;;;;;;63.50;52.50;;;;;;;;5060091;28;45406;-80
2022/12/10 05:51:58;;;;;;;;;60.50;49.00;;;;;;;;5060000;28;45341;-78
2022/12/10 05:54:23;;;;;;;;;57.00;45.50;;;;;;;;5060344;28;45436;-78
2022/12/10 05:56:48;;;;;;;;;55.75;46.25;;;;;;;;5059995;28;45469;-79
2022/12/10 05:59:14;;;;;;;;;56.00;43.75;;;;;;;;5059945;28;46192;-78
2022/12/10 06:01:39;;;;;;;;;60.25;48.50;;;;;;;;5059091;28;45304;-79
2022/12/10 06:04:05;;;;;;;;;53.50;44.75;;;;;;;;5060211;28;45512;-79
2022/12/10 06:06:32;;;;;;;;;59.75;44.75;;;;;;;;5060071;28;45243;-79
2022/12/10 06:08:57;;;;;;;;;40.25;38.00;;;;;;;;5059456;28;46422;-79
2022/12/10 06:11:23;;;;;;;;;55.00;42.00;;;;;;;;5059906;28;45229;-78
2022/12/10 06:13:48;;;;;;;;;34.75;33.50;;;;;;;;5059936;28;45523;-79
2022/12/10 06:16:14;;;;;;;;;41.25;36.75;;;;;;;;5059945;28;45612;-78
2022/12/10 06:18:40;;;;;;;;;44.00;38.75;;;;;;;;5058248;28;47399;-79
2022/12/10 06:21:06;;;;;;;;;45.25;38.75;;;;;;;;5059549;28;45328;-79
2022/12/10 06:23:31;;;;;;;;;48.25;41.50;;;;;;;;5059921;28;45383;-79
2022/12/10 06:25:56;;;;;;;;;44.00;40.25;;;;;;;;5057946;28;45454;-78
2022/12/10 06:28:21;;;;;;;;;47.00;39.50;;;;;;;;5057748;28;45269;-78
2022/12/10 06:30:47;;;;;;;;;48.75;40.50;;;;;;;;5054638;28;45366;-78
2022/12/10 06:33:12;;;;;;;;;48.50;39.00;;;;;;;;5047111;28;45304;-79
2022/12/10 06:35:37;;;;;;;;;44.25;39.00;;;;;;;;5045591;28;45314;-80
2022/12/10 06:38:02;;;;;;;;;41.00;37.00;;;;;;;;5059360;28;45432;-80
2022/12/10 06:40:27;;;;;;;;;40.50;36.25;;;;;;;;5059552;28;45492;-80
2022/12/10 06:42:53;;;;;;;;;43.25;38.00;;;;;;;;5059571;28;45484;-80
2022/12/10 06:45:18;;;;;;;;;49.50;38.00;;;;;;;;5059053;28;45283;-79
2022/12/10 06:47:43;;;;;;;;;51.25;40.25;;;;;;;;5051454;28;45318;-79
2022/12/10 06:50:09;;;;;;;;;48.50;42.25;;;;;;;;5052881;28;45416;-80
2022/12/10 06:52:34;;;;;;;;;48.00;40.25;;;;;;;;5059392;28;45287;-80
2022/12/10 06:54:59;;;;;;;;;48.75;41.50;;;;;;;;5059536;28;45438;-79
2022/12/10 06:57:24;;;;;;;;;54.25;42.00;;;;;;;;5059074;28;45469;-81
2022/12/10 06:59:49;;;;;;;;;46.25;38.75;;;;;;;;5059506;28;45417;-80
2022/12/10 07:02:15;;;;;;;;;44.75;37.75;;;;;;;;5058018;28;45298;-80
2022/12/10 07:04:40;;;;;;;;;38.50;36.50;;;;;;;;5058358;28;45462;-80
2022/12/10 07:07:06;;;;;;;;;47.00;38.25;;;;;;;;5058690;28;46133;-79
2022/12/10 07:09:31;;;;;;;;;45.75;37.50;;;;;;;;5054920;28;45499;-80
2022/12/10 07:11:57;;;;;;;;;46.25;38.50;;;;;;;;5052793;28;45234;-79
2022/12/10 07:14:22;;;;;;;;;41.75;37.00;;;;;;;;5059898;28;45306;-80
2022/12/10 07:16:47;;;;;;;;;39.25;34.75;;;;;;;;5061976;28;46193;-80
2022/12/10 07:19:12;;;;;;;;;35.50;33.50;;;;;;;;5059297;28;45349;-80
2022/12/10 07:21:39;;;;;;;;;38.00;36.25;;;;;;;;5062783;28;45412;-79
2022/12/10 07:24:11;;;;;;;;;38.50;33.50;;;;;;;;5062478;28;45345;-80
2022/12/10 07:26:38;;;;;;;;;29.75;24.00;;;;;;;;5062418;28;46696;-78
2022/12/10 07:29:04;;;;;;;;;41.50;34.00;;;;;;;;5062388;28;45224;-78
2022/12/10 07:31:29;;;;;;;;;32.50;29.25;;;;;;;;5062164;28;45314;-80
2022/12/10 07:33:56;;;;;;;;;39.50;35.50;;;;;;;;5062320;28;45345;-79
2022/12/10 07:36:24;;;;;;;;;36.25;30.25;;;;;;;;5062000;28;46231;-79
2022/12/10 07:38:53;;;;;;;;;35.00;30.00;;;;;;;;5062137;28;45299;-79
2022/12/10 07:41:19;;;;;;;;;32.75;29.50;;;;;;;;5062221;28;45305;-79
2022/12/10 07:43:45;;;;;;;;;32.00;28.50;;;;;;;;5062273;28;45348;-80
2022/12/10 07:46:11;;;;;;;;;33.00;29.25;;;;;;;;5061778;28;45374;-79
2022/12/10 07:48:37;;;;;;;;;33.50;29.75;;;;;;;;5061939;28;45377;-79
2022/12/10 07:51:03;;;;;;;;;32.00;29.00;;;;;;;;5062119;28;45303;-78
2022/12/10 07:53:28;;;;;;;;;30.25;25.75;;;;;;;;5060307;28;46013;-80
2022/12/10 07:55:53;;;;;;;;;35.50;30.75;;;;;;;;5062007;28;46109;-80
2022/12/10 07:58:18;;;;;;;;;34.75;31.25;;;;;;;;5060547;28;45844;-80
2022/12/10 08:00:44;;;;;;;;;28.00;24.75;;;;;;;;5060749;28;45279;-80
2022/12/10 08:03:09;;;;;;;;;33.00;31.75;;;;;;;;5061936;28;45334;-80
2022/12/10 08:05:34;;;;;;;;;32.75;26.25;;;;;;;;5061636;28;45476;-79
2022/12/10 08:07:59;;;;;;;;;33.50;30.00;;;;;;;;5060450;28;45303;-79
2022/12/10 08:10:24;;;;;;;;;31.00;30.00;;;;;;;;5061800;28;45293;-80
2022/12/10 08:12:50;;;;;;;;;40.75;36.00;;;;;;;;5061725;28;45474;-81
2022/12/10 08:15:15;;;;;;;;;39.75;34.25;;;;;;;;5061298;28;45527;-79
2022/12/10 08:17:40;;;;;;;;;38.75;34.75;;;;;;;;5060395;28;45344;-78
2022/12/10 08:20:05;;;;;;;;;29.50;27.00;;;;;;;;5061358;28;45638;-78
2022/12/10 08:22:32;;;;;;;;;28.50;25.25;;;;;;;;5059149;28;45642;-78
2022/12/10 08:24:58;;;;;;;;;31.50;26.50;;;;;;;;5060600;28;47410;-78
2022/12/10 08:27:23;;;;;;;;;30.50;28.25;;;;;;;;5061563;28;45401;-78
2022/12/10 08:29:48;;;;;;;;;31.75;28.50;;;;;;;;5061391;28;45445;-78
2022/12/10 08:32:13;;;;;;;;;29.75;26.00;;;;;;;;5060140;28;47296;-78
2022/12/10 08:34:38;;;;;;;;;28.25;27.25;;;;;;;;5060915;28;45507;-78
2022/12/10 08:37:04;;;;;;;;;37.25;32.75;;;;;;;;5061583;28;45255;-78
2022/12/10 08:39:29;;;;;;;;;39.50;29.25;;;;;;;;5059722;28;45302;-78
2022/12/10 08:41:54;;;;;;;;;37.50;32.75;;;;;;;;5059966;28;47095;-78
2022/12/10 08:44:19;;;;;;;;;35.75;28.25;;;;;;;;5061193;28;45371;-77
2022/12/10 08:46:44;;;;;;;;;33.75;28.50;;;;;;;;5059534;28;45648;-78
2022/12/10 08:49:10;;;;;;;;;28.25;26.00;;;;;;;;5061379;28;45450;-78
2022/12/10 08:51:35;;;;;;;;;28.25;26.00;;;;;;;;5059637;28;46560;-78
2022/12/10 08:54:00;;;;;;;;;25.00;24.25;;;;;;;;5059681;28;47324;-78
2022/12/10 08:56:25;;;;;;;;;26.25;20.25;;;;;;;;5059861;28;45259;-78
2022/12/10 08:58:51;;;;;;;;;34.50;27.00;;;;;;;;5061116;28;45377;-78
2022/12/10 09:01:17;;;;;;;;;29.75;27.25;;;;;;;;5060800;28;45441;-78
2022/12/10 09:03:42;;;;;;;;;34.50;30.75;;;;;;;;5060760;28;46974;-77
2022/12/10 09:06:09;;;;;;;;;26.75;25.75;;;;;;;;5059575;28;45325;-78
2022/12/10 09:08:34;;;;;;;;;30.50;25.00;;;;;;;;5059472;28;45334;-78
2022/12/10 09:11:10;;;;;;;;;32.00;30.00;;;;;;;;5060806;28;45319;-78
2022/12/10 09:13:35;;;;;;;;;28.75;24.75;;;;;;;;5060465;28;45394;-77
2022/12/10 09:16:01;;;;;;;;;27.25;24.00;;;;;;;;5060663;28;45436;-78
2022/12/10 09:18:27;;;;;;;;;28.25;24.50;;;;;;;;5059415;28;45285;-78
2022/12/10 09:20:52;;;;;;;;;31.75;28.75;;;;;;;;5060289;28;45298;-78
2022/12/10 09:23:17;;;;;;;;;34.00;32.00;;;;;;;;5059097;28;47073;-79
2022/12/10 09:25:42;;;;;;;;;26.75;24.75;;;;;;;;5059347;28;45580;-78
2022/12/10 09:28:08;;;;;;;;;32.50;23.50;;;;;;;;5060545;28;45330;-78
2022/12/10 09:30:33;;;;;;;;;26.50;23.75;;;;;;;;5060357;28;45366;-78
2022/12/10 09:32:58;;;;;;;;;27.50;27.25;;;;;;;;5060159;28;46111;-77
2022/12/10 09:35:24;;;;;;;;;30.50;28.25;;;;;;;;5058434;28;45326;-77
2022/12/10 09:37:49;;;;;;;;;29.75;25.75;;;;;;;;5058891;28;45358;-78
2022/12/10 09:40:16;;;;;;;;;32.25;28.00;;;;;;;;5060287;28;45359;-78
2022/12/10 09:42:50;;;;;;;;;29.75;27.75;;;;;;;;5059084;28;48203;-78
2022/12/10 09:45:18;;;;;;;;;31.25;24.75;;;;;;;;5060011;28;45430;-78
2022/12/10 09:48:12;;;;;;;;;26.75;26.25;;;;;;;;5060262;28;45719;-78
2022/12/10 09:50:58;;;;;;;;;32.00;25.00;;;;;;;;5060144;28;45316;-78
2022/12/10 09:53:24;;;;;;;;;27.00;24.00;;;;;;;;5055594;28;46187;-77
2022/12/10 09:55:49;;;;;;;;;34.25;28.00;;;;;;;;5060175;28;45315;-78
2022/12/10 09:58:20;;;;;;;;;28.75;24.75;;;;;;;;5060055;28;45342;-78
2022/12/10 10:00:47;;;;;;;;;24.75;21.25;;;;;;;;5060084;28;45246;-77
2022/12/10 10:03:14;;;;;;;;;27.50;27.00;;;;;;;;5059757;28;45414;-78
2022/12/10 10:05:44;;;;;;;;;24.50;24.00;;;;;;;;5059876;28;45285;-78
2022/12/10 10:08:36;;;;;;;;;34.00;29.50;;;;;;;;5059833;28;45314;-78
2022/12/10 10:11:01;;;;;;;;;25.50;22.00;;;;;;;;5056646;28;45829;-78
2022/12/10 10:13:45;;;;;;;;;25.25;25.25;;;;;;;;5059756;28;45354;-78
2022/12/10 10:16:25;;;;;;;;;22.00;16.67;;;;;;;;5059872;28;45409;-78
2022/12/10 10:18:53;;;;;;;;;24.25;24.00;;;;;;;;5059701;28;45597;-78
2022/12/10 10:21:19;;;;;;;;;10.00;10.00;;;;;;;;5059638;28;45332;-78
2022/12/10 10:23:45;;;;;;;;;28.75;25.50;;;;;;;;5059414;28;46071;-78
2022/12/10 10:26:11;;;;;;;;;31.00;29.25;;;;;;;;5058200;28;45335;-77
2022/12/10 10:28:38;;;;;;;;;31.00;26.00;;;;;;;;5059663;28;45244;-77
2022/12/10 10:31:14;;;;;;;;;29.50;26.00;;;;;;;;5059346;28;45264;-77
2022/12/10 10:33:50;;;;;;;;;30.75;26.75;;;;;;;;5059377;28;45476;-78
2022/12/10 10:36:15;;;;;;;;;33.25;32.00;;;;;;;;5059305;28;45230;-77
2022/12/10 10:38:46;;;;;;;;;26.00;26.00;;;;;;;;5059542;28;45216;-78
2022/12/10 10:41:13;;;;;;;;;17.75;16.50;;;;;;;;5059484;28;45452;-78
2022/12/10 10:43:44;;;;;;;;;30.25;27.25;;;;;;;;5057839;28;47688;-78
2022/12/10 10:46:30;;;;;;;;;29.75;28.50;;;;;;;;5058890;28;45425;-78
2022/12/10 10:49:12;;;;;;;;;37.00;30.50;;;;;;;;5046968;28;45294;-77
2022/12/10 10:51:42;;;;;;;;;27.50;25.25;;;;;;;;5057823;28;45783;-78
2022/12/10 10:54:07;;;;;;;;;23.75;22.00;;;;;;;;5058814;28;46247;-77
2022/12/10 10:56:39;;;;;;;;;32.50;29.50;;;;;;;;5059301;28;45696;-77
2022/12/10 10:59:04;;;;;;;;;33.00;30.00;;;;;;;;5057975;28;45369;-78
2022/12/10 11:01:46;;;;;;;;;36.00;31.25;;;;;;;;5057765;28;45958;-77
2022/12/10 11:04:12;;;;;;;;;33.50;32.75;;;;;;;;5046624;28;45312;-78
2022/12/10 11:06:39;;;;;;;;;34.75;30.00;;;;;;;;5059254;28;45384;-78
2022/12/10 11:09:05;;;;;;;;;30.00;28.33;;;;;;;;5057653;28;45441;-78
2022/12/10 11:11:34;;;;;;;;;31.75;29.75;;;;;;;;5059012;28;45403;-77
2022/12/10 11:14:12;;;;;;;;;37.00;30.50;;;;;;;;5072894;28;45269;-77
2022/12/10 11:16:38;;;;;;;;;27.25;26.50;;;;;;;;5058743;28;45350;-77
2022/12/10 11:19:04;;;;;;;;;31.25;28.75;;;;;;;;5057373;28;45347;-77
2022/12/10 11:21:31;;;;;;;;;36.00;32.00;;;;;;;;5058848;28;45498;-77
2022/12/10 11:23:56;;;;;;;;;35.50;32.00;;;;;;;;5058796;28;45341;-77
2022/12/10 11:26:41;;;;;;;;;35.00;30.75;;;;;;;;5057769;28;45469;-77
2022/12/10 11:29:24;;;;;;;;;41.50;35.25;;;;;;;;5056737;28;45338;-76
2022/12/10 11:31:49;;;;;;;;;41.00;37.25;;;;;;;;5058712;28;45401;-76
2022/12/10 11:34:33;;;;;;;;;30.00;27.00;;;;;;;;5058573;28;45445;-76
2022/12/10 11:37:13;;;;;;;;;35.25;34.00;;;;;;;;5046290;28;45276;-76
2022/12/10 11:39:51;;;;;;;;;41.25;35.00;;;;;;;;5058455;28;45441;-76
2022/12/10 11:42:26;;;;;;;;;34.00;29.25;;;;;;;;5054246;28;45359;-77
2022/12/10 11:45:00;;;;;;;;;40.50;35.75;;;;;;;;5058359;28;45460;-77
2022/12/10 11:47:34;;;;;;;;;42.50;35.50;;;;;;;;5058437;28;45453;-77
2022/12/10 11:50:02;;;;;;;;;39.50;34.50;;;;;;;;5058860;28;45488;-77
2022/12/10 11:52:46;;;;;;;;;37.00;33.25;;;;;;;;5058290;28;45304;-77
2022/12/10 11:55:36;;;;;;;;;48.75;39.00;;;;;;;;5058082;28;45313;-78
2022/12/10 11:58:23;;;;;;;;;35.50;34.25;;;;;;;;5057872;28;45353;-77
2022/12/10 12:01:07;;;;;;;;;37.75;35.50;;;;;;;;5061480;28;45359;-78
2022/12/10 12:03:35;;;;;;;;;36.25;35.00;;;;;;;;5062003;28;45383;-77
2022/12/10 12:06:06;;;;;;;;;48.50;40.50;;;;;;;;5061520;28;46128;-77
2022/12/10 12:08:50;;;;;;;;;38.00;35.50;;;;;;;;5061948;28;45250;-77
2022/12/10 12:11:21;;;;;;;;;44.25;38.00;;;;;;;;5060459;28;45398;-77
2022/12/10 12:13:58;;;;;;;;;48.50;38.75;;;;;;;;5058635;28;47461;-77
2022/12/10 12:16:29;;;;;;;;;48.25;40.00;;;;;;;;5058020;28;48522;-77
2022/12/10 12:19:00;;;;;;;;;48.75;41.00;;;;;;;;5052180;28;45216;-78
2022/12/10 12:21:26;;;;;;;;;40.50;35.50;;;;;;;;5053330;28;45654;-77
2022/12/10 12:23:56;;;;;;;;;47.50;40.00;;;;;;;;5056773;28;46099;-78
2022/12/10 12:26:25;;;;;;;;;43.00;36.25;;;;;;;;5060053;28;47066;-77
2022/12/10 12:28:54;;;;;;;;;42.50;36.50;;;;;;;;5061751;28;45580;-77
2022/12/10 12:31:21;;;;;;;;;43.00;35.50;;;;;;;;5058088;28;45436;-77
2022/12/10 12:33:50;;;;;;;;;44.75;37.75;;;;;;;;5056183;28;45406;-77
2022/12/10 12:36:28;;;;;;;;;42.00;36.00;;;;;;;;5060858;28;45485;-77
2022/12/10 12:38:56;;;;;;;;;45.50;36.00;;;;;;;;5058911;28;45434;-77
2022/12/10 12:41:36;;;;;;;;;43.25;38.25;;;;;;;;5060380;28;45400;-77
2022/12/10 12:44:20;;;;;;;;;45.50;37.00;;;;;;;;5053912;28;45355;-78
2022/12/10 12:46:46;;;;;;;;;38.75;34.75;;;;;;;;5049296;28;46245;-78
2022/12/10 12:49:12;;;;;;;;;43.75;36.75;;;;;;;;5052597;28;45503;-77
2022/12/10 12:51:43;;;;;;;;;45.50;36.75;;;;;;;;5053220;28;45374;-78
2022/12/10 12:54:12;;;;;;;;;43.50;37.75;;;;;;;;5058934;28;45466;-77
2022/12/10 12:56:56;;;;;;;;;34.75;34.00;;;;;;;;5060830;28;45678;-77
2022/12/10 12:59:27;;;;;;;;;39.25;36.50;;;;;;;;5054518;28;45387;-77
2022/12/10 13:02:21;;;;;;;;;45.50;37.25;;;;;;;;5058228;28;45274;-77
2022/12/10 13:04:47;;;;;;;;;43.25;35.75;;;;;;;;5054511;28;47624;-77
2022/12/10 13:07:15;;;;;;;;;41.50;35.75;;;;;;;;5060471;28;45904;-77
2022/12/10 13:09:43;;;;;;;;;39.25;36.25;;;;;;;;5048988;28;45634;-77
2022/12/10 13:12:15;;;;;;;;;53.75;40.50;;;;;;;;5053128;28;45424;-77
2022/12/10 13:14:51;;;;;;;;;47.75;38.75;;;;;;;;5060047;28;45513;-78
2022/12/10 13:17:35;;;;;;;;;43.75;36.50;;;;;;;;5046596;28;48304;-78
2022/12/10 13:20:19;;;;;;;;;43.75;36.00;;;;;;;;5047887;28;45568;-78
2022/12/10 13:22:54;;;;;;;;;42.50;37.75;;;;;;;;5060340;28;45291;-77
2022/12/10 13:25:36;;;;;;;;;50.50;41.25;;;;;;;;5055350;28;46026;-79
2022/12/10 13:28:16;;;;;;;;;43.50;38.00;;;;;;;;5058658;28;45330;-78
2022/12/10 13:30:41;;;;;;;;;46.00;38.00;;;;;;;;5060175;28;45466;-78
2022/12/10 13:33:14;;;;;;;;;50.00;40.00;;;;;;;;5059858;28;45370;-78
2022/12/10 13:35:59;;;;;;;;;53.25;43.00;;;;;;;;5059319;28;45859;-78
2022/12/10 13:38:25;;;;;;;;;40.25;36.25;;;;;;;;5052326;28;45471;-76
2022/12/10 13:46:53;;;;;;;;;45.25;39.75;;;;;;;;5053240;28;45282;-78
2022/12/10 13:49:29;;;;;;;;;43.75;37.00;;;;;;;;5042616;28;45390;-77
2022/12/10 13:51:57;;;;;;;;;36.00;34.75;;;;;;;;5048783;28;45488;-77
2022/12/10 13:54:25;;;;;;;;;49.75;38.50;;;;;;;;5058798;28;45468;-77
2022/12/10 13:56:59;;;;;;;;;47.75;36.50;;;;;;;;5060308;28;45366;-77
2022/12/10 13:59:41;;;;;;;;;42.50;38.75;;;;;;;;5059651;28;46055;-77
2022/12/10 14:02:20;;;;;;;;;39.25;35.50;;;;;;;;5053155;28;45452;-78
2022/12/10 14:05:01;;;;;;;;;50.25;38.75;;;;;;;;5054192;28;45464;-77
2022/12/10 14:07:26;;;;;;;;;52.75;42.75;;;;;;;;5057097;28;45459;-77
2022/12/10 14:09:53;;;;;;;;;44.50;37.50;;;;;;;;5059747;28;46165;-77
2022/12/10 14:12:24;;;;;;;;;36.75;32.25;;;;;;;;5060188;28;45542;-77
2022/12/10 14:14:53;;;;;;;;;48.75;39.75;;;;;;;;5053905;28;45436;-77
2022/12/10 14:17:21;;;;;;;;;42.25;36.25;;;;;;;;5045336;28;45397;-77
2022/12/10 14:19:47;;;;;;;;;43.75;37.50;;;;;;;;5058980;28;46307;-76
2022/12/10 14:22:16;;;;;;;;;42.50;35.25;;;;;;;;5057772;28;45355;-76
2022/12/10 14:24:43;;;;;;;;;46.25;36.75;;;;;;;;5059637;28;45374;-76
2022/12/10 14:27:11;;;;;;;;;41.75;37.00;;;;;;;;5059592;28;45476;-75
2022/12/10 14:29:36;;;;;;;;;42.00;38.75;;;;;;;;5057036;28;45466;-75
2022/12/10 14:32:02;;;;;;;;;55.00;45.50;;;;;;;;5055110;28;45429;-75
2022/12/10 14:34:28;;;;;;;;;55.50;43.75;;;;;;;;5050398;28;45317;-75
2022/12/10 14:36:55;;;;;;;;;53.50;45.00;;;;;;;;5058371;28;46359;-75
2022/12/10 14:39:21;;;;;;;;;55.75;44.50;;;;;;;;5059000;28;46303;-75
2022/12/10 14:41:51;;;;;;;;;58.75;46.50;;;;;;;;5058111;28;45453;-75